E.r.bristol — A8XQ6 — position and weather

sailwx.info

Track history (hours):
 
Tides and Currents Weather Stations Pressure Air Temp Water Temp Dewpoint Dewpoint Depression Visibility Wind Speed Wind Dir Waves Ship Positions

E.r.bristol

Last reported at 2016-Jun-14 01:27 UTC. Time now 2016-Jun-28 17:04 UTC.
Position N 02°02' E 102°10'.
Warning: this ship's position is 14 days out of date.

Length 188 m; draft 10.4 m.

Type: Cargo ship. MMSI: 636092151.

Date/timePositionNaut miles runAvg speedWind from/ knotsBaromVisibWave heightAir tempDewpointWater temp
2016-Jun-14 01:27N 02°02' E 102°10'1213.1
2016-Jun-14 00:33N 01°55' E 102°20'1312.9
2016-Jun-13 23:33N 01°49' E 102°31'7912.3
2016-Jun-13 17:10N 01°11' E 103°40'810.6
2016-Jun-13 16:27N 01°10' E 103°47'1011.2
2016-Jun-13 15:33N 01°15' E 103°56'4 3.2
2016-Jun-13 14:16N 01°17' E 103°59'0 0.0
2016-Jun-13 13:28N 01°17' E 103°59'0 0.0
2016-Jun-13 11:28N 01°17' E 103°59'0 0.0
2016-Jun-13 10:22N 01°17' E 103°59'0 0.0
2016-Jun-13 09:28N 01°17' E 103°59'0 0.0
2016-Jun-13 07:31N 01°17' E 103°59'0 0.0
2016-Jun-13 05:31N 01°17' E 103°59'0 0.0
2016-Jun-13 04:31N 01°17' E 103°59'0 0.0
2016-Jun-13 02:28N 01°17' E 103°59'0 0.0
2016-Jun-13 01:31N 01°17' E 103°59'0 0.0
2016-Jun-13 00:25N 01°17' E 103°59'1 0.6
2016-Jun-12 23:30N 01°18' E 103°60'3 2.5
2016-Jun-12 22:26N 01°16' E 104°02'  
2016-Jun-04 16:32N 36°05' E 123°05'1512.6
2016-Jun-04 15:20N 36°20' E 123°04'1112.7
2016-Jun-04 14:30N 36°31' E 123°04'1213.0
2016-Jun-04 13:33N 36°43' E 123°03'1313.0
2016-Jun-04 12:33N 36°56' E 123°01'1212.5
2016-Jun-04 11:33N 37°08' E 122°58'1211.7
2016-Jun-04 10:32N 37°20' E 122°58'1111.2
2016-Jun-04 09:31N 37°32' E 122°57'2311.2
2016-Jun-04 07:29N 37°46' E 122°35'7111.9
2016-Jun-04 01:33N 38°22' E 121°18'  
Track history (hours):
 
Tides and Currents Weather Stations Pressure Air Temp Water Temp Dewpoint Dewpoint Depression Visibility Wind Speed Wind Dir Waves Ship Positions

E.r.bristol

Last reported at 2016-Jun-14 01:27 UTC. Time now 2016-Jun-28 17:04 UTC.
Position N 02°02' E 102°10'.
Warning: this ship's position is 14 days out of date.

Length 188 m; draft 10.4 m.

Type: Cargo ship. MMSI: 636092151.

Date/timePositionNaut miles runAvg speedWind from/ knotsBaromVisibWave heightAir tempDewpointWater temp
2016-Jun-14 01:27N 02°02' E 102°10'1213.1
2016-Jun-14 00:33N 01°55' E 102°20'1312.9
2016-Jun-13 23:33N 01°49' E 102°31'7912.3
2016-Jun-13 17:10N 01°11' E 103°40'810.6
2016-Jun-13 16:27N 01°10' E 103°47'1011.2
2016-Jun-13 15:33N 01°15' E 103°56'4 3.2
2016-Jun-13 14:16N 01°17' E 103°59'0 0.0
2016-Jun-13 13:28N 01°17' E 103°59'0 0.0
2016-Jun-13 11:28N 01°17' E 103°59'0 0.0
2016-Jun-13 10:22N 01°17' E 103°59'0 0.0
2016-Jun-13 09:28N 01°17' E 103°59'0 0.0
2016-Jun-13 07:31N 01°17' E 103°59'0 0.0
2016-Jun-13 05:31N 01°17' E 103°59'0 0.0
2016-Jun-13 04:31N 01°17' E 103°59'0 0.0
2016-Jun-13 02:28N 01°17' E 103°59'0 0.0
2016-Jun-13 01:31N 01°17' E 103°59'0 0.0
2016-Jun-13 00:25N 01°17' E 103°59'1 0.6
2016-Jun-12 23:30N 01°18' E 103°60'3 2.5
2016-Jun-12 22:26N 01°16' E 104°02'  
2016-Jun-04 16:32N 36°05' E 123°05'1512.6
2016-Jun-04 15:20N 36°20' E 123°04'1112.7
2016-Jun-04 14:30N 36°31' E 123°04'1213.0
2016-Jun-04 13:33N 36°43' E 123°03'1313.0
2016-Jun-04 12:33N 36°56' E 123°01'1212.5
2016-Jun-04 11:33N 37°08' E 122°58'1211.7
2016-Jun-04 10:32N 37°20' E 122°58'1111.2
2016-Jun-04 09:31N 37°32' E 122°57'2311.2
2016-Jun-04 07:29N 37°46' E 122°35'7111.9
2016-Jun-04 01:33N 38°22' E 121°18'  

Dump ship's entire track history